PWSweather.com
Personal Weather Stations
Station Observations
WISCHPK61
Green Bay Schmitt Park, Green Bay, WI 54311

Green Bay Schmitt ParkGreen Bay, WI 54311

Lat: 44.514277, Lon: -87.935067

Elevation: 735

Station Type: Acu Rite Pro Weather Center model 02032C

http://greenbayweathercam.com

High Low Average
Temperature 76.1°F24.5°C 63.5°F17.5°C 68.6°F20.3°C
Dew Point 75.8°F24.3°C 63.2°F17.3°C 68.3°F20.2°C
Winds 1.2 mph 1.9 kmh Calm Calm Calm SCalm S
Wind Gusts 3.5 mph5.6 kmh -- --
Humidity 99% 99% 99%
Pressure 29.26 in990.9 mb 29.11 in985.8 mb -
Precipitation 0.04 in1.0 mm - -
Hour Temp Dew Point Humidity Winds Wind Gusts Pressure Precip Precip Rate Daily Precip Total
12:00 AM 64.2°F17.9°C 63.9°F17.7°C 99% Calm Calm -- 29.13 in986.5 mb - 0.00 in0.0 mm 0.00 in0.0 mm
01:00 AM 63.7°F17.6°C 63.4°F17.4°C 99% Calm Calm -- 29.13 in986.5 mb - 0.00 in0.0 mm 0.00 in0.0 mm
02:00 AM 63.5°F17.5°C 63.2°F17.3°C 99% Calm Calm -- 29.12 in986.1 mb - 0.00 in0.0 mm 0.00 in0.0 mm
03:00 AM 63.5°F17.5°C 63.2°F17.3°C 99% Calm Calm -- 29.11 in985.8 mb - 0.00 in0.0 mm 0.00 in0.0 mm
04:00 AM 63.7°F17.6°C 63.4°F17.4°C 99% Calm Calm -- 29.12 in986.1 mb - 0.04 in1.0 mm 0.04 in1.0 mm
05:00 AM 64.0°F17.8°C 63.7°F17.6°C 99% Calm Calm -- 29.11 in985.8 mb - 0.00 in0.0 mm 0.04 in1.0 mm
06:00 AM 64.6°F18.1°C 64.3°F17.9°C 99% Calm Calm -- 29.12 in986.1 mb - 0.00 in0.0 mm 0.04 in1.0 mm
07:00 AM 65.3°F18.5°C 65.0°F18.3°C 99% Calm Calm 1.2 mph1.9 kmh 29.12 in986.1 mb - 0.00 in0.0 mm 0.04 in1.0 mm
08:00 AM 66.2°F19.0°C 65.9°F18.8°C 99% Calm Calm -- 29.13 in986.5 mb - 0.00 in0.0 mm 0.04 in1.0 mm
09:00 AM 66.9°F19.4°C 66.6°F19.2°C 99% Calm Calm -- 29.15 in987.1 mb - 0.00 in0.0 mm 0.04 in1.0 mm
10:00 AM 67.3°F19.6°C 67.0°F19.4°C 99% Calm Calm -- 29.17 in987.8 mb - 0.00 in0.0 mm 0.04 in1.0 mm
11:00 AM 69.3°F20.7°C 69.0°F20.6°C 99% Calm Calm -- 29.17 in987.8 mb - 0.00 in0.0 mm 0.04 in1.0 mm
12:00 PM 71.4°F21.9°C 71.1°F21.7°C 99% Calm Calm 3.5 mph5.6 kmh 29.17 in987.8 mb - 0.00 in0.0 mm 0.04 in1.0 mm
01:00 PM 75.0°F23.9°C 74.7°F23.7°C 99% 1.2 mph NW1.9 kmh NW 2.3 mph3.7 kmh 29.17 in987.8 mb - 0.00 in0.0 mm 0.04 in1.0 mm
02:00 PM 76.1°F24.5°C 75.8°F24.3°C 99% Calm Calm -- 29.17 in987.8 mb - 0.00 in0.0 mm 0.04 in1.0 mm
03:00 PM 75.7°F24.3°C 75.4°F24.1°C 99% Calm Calm -- 29.18 in988.1 mb - 0.00 in0.0 mm 0.04 in1.0 mm
04:00 PM 75.4°F24.1°C 75.1°F23.9°C 99% Calm Calm -- 29.19 in988.5 mb - 0.00 in0.0 mm 0.04 in1.0 mm
05:00 PM 75.7°F24.3°C 75.4°F24.1°C 99% Calm Calm -- 29.18 in988.1 mb - 0.00 in0.0 mm 0.04 in1.0 mm
06:00 PM 74.0°F23.3°C 73.7°F23.2°C 99% Calm Calm -- 29.19 in988.5 mb - 0.00 in0.0 mm 0.04 in1.0 mm
07:00 PM 71.1°F21.7°C 70.8°F21.6°C 99% Calm Calm -- 29.20 in988.8 mb - 0.00 in0.0 mm 0.04 in1.0 mm
08:00 PM 68.7°F20.4°C 68.4°F20.2°C 99% Calm Calm -- 29.22 in989.5 mb - 0.00 in0.0 mm 0.04 in1.0 mm
09:00 PM 67.5°F19.7°C 67.2°F19.6°C 99% Calm Calm -- 29.24 in990.2 mb - 0.00 in0.0 mm 0.04 in1.0 mm
10:00 PM 66.7°F19.3°C 66.4°F19.1°C 99% Calm Calm -- 29.25 in990.5 mb - 0.00 in0.0 mm 0.04 in1.0 mm
11:00 PM 65.8°F18.8°C 65.5°F18.6°C 99% Calm Calm -- 29.26 in990.9 mb - 0.00 in0.0 mm 0.04 in1.0 mm